Time;durP1;ratioP1;P1;durP2;ratioP2;P2;SDS_P1;SDS_P2;PMS_P1;PMS_P2;Temp;Humidity;BMP_temperature;BMP_pressure;BME280_temperature;BME280_humidity;BME280_pressure;Samples;Min_cycle;Max_cycle;Signal;HPM_P1;HPM_P2
2023/06/13 00:01:56;;;;;;;4.03;2.50;;;;;;;22.98;41.38;101436.97;5015640;28;96525;-26
2023/06/13 00:04:23;;;;;;;3.78;2.58;;;;;;;22.98;40.78;101439.72;5016166;28;96793;-27
2023/06/13 00:06:55;;;;;;;7.35;2.83;;;;;;;22.92;41.58;101443.13;5015219;28;99765;-27
2023/06/13 00:09:22;;;;;;;3.85;2.50;;;;;;;22.81;41.00;101444.22;5015731;28;97336;-26
2023/06/13 00:11:50;;;;;;;5.55;2.42;;;;;;;22.80;41.67;101443.34;5013713;28;96912;-27
2023/06/13 00:14:18;;;;;;;4.63;2.80;;;;;;;22.78;41.39;101441.78;5014219;28;96823;-29
2023/06/13 00:16:44;;;;;;;4.95;1.85;;;;;;;22.72;41.12;101435.03;5013799;28;101692;-26
2023/06/13 00:19:11;;;;;;;4.43;2.50;;;;;;;22.62;41.13;101431.44;5013762;28;100817;-26
2023/06/13 00:21:38;;;;;;;4.28;2.40;;;;;;;22.62;41.09;101420.41;5013749;28;96699;-26
2023/06/13 00:24:03;;;;;;;3.63;2.20;;;;;;;22.64;41.21;101429.41;5014016;28;96842;-26
2023/06/13 00:26:29;;;;;;;3.85;2.33;;;;;;;22.58;41.58;101419.88;5014842;28;98144;-27
2023/06/13 00:28:54;;;;;;;6.40;2.38;;;;;;;22.62;41.04;101432.34;5015607;28;97929;-26
2023/06/13 00:31:20;;;;;;;2.80;1.83;;;;;;;22.50;41.31;101421.69;5014932;28;96718;-26
2023/06/13 00:33:45;;;;;;;5.40;2.65;;;;;;;22.47;41.17;101437.53;5013497;28;96910;-26
2023/06/13 00:36:15;;;;;;;3.33;2.13;;;;;;;22.41;40.81;101418.84;5014624;28;97386;-26
2023/06/13 00:38:41;;;;;;;2.95;2.30;;;;;;;22.39;40.95;101420.91;5014634;28;99169;-27
2023/06/13 00:41:07;;;;;;;4.55;1.98;;;;;;;22.30;41.21;101419.09;5013761;28;96752;-27
2023/06/13 00:43:32;;;;;;;3.95;2.40;;;;;;;22.32;41.27;101422.56;5015253;28;96783;-27
2023/06/13 00:46:00;;;;;;;3.60;1.98;;;;;;;22.36;41.09;101421.22;5014680;28;99321;-26
2023/06/13 00:48:26;;;;;;;4.07;2.30;;;;;;;22.28;40.86;101418.38;5014705;28;97911;-26
2023/06/13 00:50:52;;;;;;;4.22;2.40;;;;;;;22.23;40.61;101416.06;5015207;28;96659;-27
2023/06/13 00:53:19;;;;;;;4.03;2.58;;;;;;;22.29;40.86;101420.13;5015319;28;96778;-26
2023/06/13 00:55:46;;;;;;;5.40;2.17;;;;;;;22.28;41.18;101423.88;5014429;28;99477;-27
2023/06/13 00:58:12;;;;;;;3.67;2.28;;;;;;;22.16;41.01;101412.19;5013275;28;100953;-27
2023/06/13 01:00:39;;;;;;;3.42;2.15;;;;;;;22.22;40.83;101416.25;5012993;28;96649;-27
2023/06/13 01:03:10;;;;;;;3.75;2.35;;;;;;;22.20;41.02;101415.50;5013320;28;96916;-26
2023/06/13 01:05:36;;;;;;;;;;;;;;;22.11;40.98;101417.31;5014773;28;100050;-27
2023/06/13 01:08:08;;;;;;;2.67;1.70;;;;;;;22.05;40.79;101413.28;5014710;28;97466;-26
2023/06/13 01:10:34;;;;;;;5.32;2.33;;;;;;;21.94;40.71;101405.22;5013387;28;96566;-26
2023/06/13 01:13:08;;;;;;;3.70;2.20;;;;;;;22.01;40.89;101411.84;5013272;28;96812;-26
2023/06/13 01:15:42;;;;;;;2.95;1.80;;;;;;;21.94;40.57;101415.41;5014241;28;99248;-26
2023/06/13 01:18:10;;;;;;;5.95;2.40;;;;;;;21.87;41.11;101412.38;5013315;28;100893;-26
2023/06/13 01:20:36;;;;;;;4.50;2.58;;;;;;;21.84;41.13;101401.66;5013150;28;96670;-27
2023/06/13 01:23:36;;;;;;;5.43;2.22;;;;;;;21.81;40.76;101393.72;5014727;28;96742;-26
2023/06/13 01:26:13;;;;;;;3.88;2.05;;;;;;;21.74;40.80;101406.38;5012497;28;100887;-26
2023/06/13 01:28:41;;;;;;;3.55;1.98;;;;;;;21.74;41.21;101407.25;5014321;28;97838;-27
2023/06/13 01:31:08;;;;;;;4.82;2.00;;;;;;;21.68;41.13;101399.56;5013199;28;96582;-26
2023/06/13 01:33:36;;;;;;;3.97;1.92;;;;;;;21.71;40.96;101402.00;5014457;28;96842;-27
2023/06/13 01:36:01;;;;;;;3.45;2.40;;;;;;;21.74;40.70;101411.91;5017746;28;98252;-26
2023/06/13 01:38:27;;;;;;;6.32;2.55;;;;;;;21.72;41.13;101409.28;5016357;28;101038;-26
2023/06/13 01:40:52;;;;;;;4.03;2.08;;;;;;;21.71;41.06;101410.28;5016540;28;96629;-28
2023/06/13 01:43:18;;;;;;;3.80;2.10;;;;;;;21.67;41.07;101403.38;5018347;28;96818;-26
2023/06/13 01:45:44;;;;;;;4.25;2.22;;;;;;;21.55;41.36;101393.56;5017605;28;99287;-26
2023/06/13 01:48:30;;;;;;;4.05;2.25;;;;;;;21.59;41.39;101408.75;5016116;28;100944;-26
2023/06/13 01:51:03;;;;;;;3.40;2.13;;;;;;;21.54;41.84;101397.31;5016001;28;96569;-26
2023/06/13 01:53:36;;;;;;;3.67;2.15;;;;;;;21.52;41.61;101399.34;5016461;28;96751;-26
2023/06/13 01:56:08;;;;;;;3.22;2.10;;;;;;;21.48;41.58;101397.94;5016047;28;101631;-27
2023/06/13 01:58:43;;;;;;;4.82;2.00;;;;;;;21.49;42.06;101395.03;5000006;28;100522;-26
2023/06/13 02:01:10;;;;;;;4.50;2.10;;;;;;;21.40;41.82;101396.81;5016371;28;96707;-26
2023/06/13 02:03:36;;;;;;;2.88;1.70;;;;;;;21.45;41.79;101401.00;5016259;28;96883;-26
2023/06/13 02:06:02;;;;;;;4.00;2.05;;;;;;;21.38;41.55;101401.59;5017285;28;98152;-26
2023/06/13 02:08:28;;;;;;;3.42;2.05;;;;;;;21.32;41.64;101391.16;5016164;28;100809;-27
2023/06/13 02:10:53;;;;;;;3.53;1.98;;;;;;;21.32;41.80;101402.16;5017742;28;96621;-26
2023/06/13 02:13:19;;;;;;;4.47;1.98;;;;;;;21.26;42.12;101400.03;5017478;28;96930;-26
2023/06/13 02:15:44;;;;;;;2.95;1.98;;;;;;;21.16;42.22;101399.19;5016442;28;103657;-26
2023/06/13 02:18:10;;;;;;;5.75;2.20;;;;;;;21.09;42.42;101389.78;5016875;28;99255;-27
2023/06/13 02:20:36;;;;;;;3.30;2.10;;;;;;;21.13;42.37;101396.72;5016133;28;96600;-28
2023/06/13 02:23:02;;;;;;;2.33;1.70;;;;;;;21.04;42.71;101389.38;5015849;28;96965;-26
2023/06/13 02:25:28;;;;;;;3.50;2.25;;;;;;;21.06;42.75;101406.63;5016713;28;97533;-27
2023/06/13 02:27:54;;;;;;;3.15;2.17;;;;;;;20.99;42.54;101398.94;5016902;28;99264;-27
2023/06/13 02:30:19;;;;;;;6.18;2.28;;;;;;;20.95;42.61;101402.13;5015978;28;96689;-26
2023/06/13 02:32:46;;;;;;;3.75;2.10;;;;;;;20.97;42.55;101405.63;5017448;28;96882;-27
2023/06/13 02:35:13;;;;;;;4.60;2.10;;;;;;;20.94;42.56;101397.66;5015236;28;101011;-27
2023/06/13 02:37:39;;;;;;;4.97;2.17;;;;;;;20.91;42.33;101387.81;5015085;28;101156;-26
2023/06/13 02:40:05;;;;;;;3.67;1.83;;;;;;;20.86;42.95;101401.16;5015150;28;96571;-26
2023/06/13 02:42:31;;;;;;;4.75;2.05;;;;;;;20.82;42.96;101401.59;5015580;28;96867;-27
2023/06/13 02:44:57;;;;;;;3.17;1.98;;;;;;;20.83;42.90;101414.34;5016539;28;104274;-27
2023/06/13 02:47:22;;;;;;;3.38;2.10;;;;;;;20.73;43.26;101400.59;5016696;28;97792;-27
2023/06/13 02:49:48;;;;;;;3.90;2.40;;;;;;;20.72;42.99;101412.63;5016850;28;96681;-26
2023/06/13 02:52:14;;;;;;;3.83;2.10;;;;;;;20.58;43.06;101405.69;5015415;28;96860;-27
2023/06/13 02:54:39;;;;;;;3.80;2.35;;;;;;;20.56;43.60;101415.97;5016679;28;97754;-26
2023/06/13 02:57:06;;;;;;;4.72;2.47;;;;;;;20.52;43.43;101418.13;5016995;28;97826;-27
2023/06/13 02:59:32;;;;;;;5.20;2.53;;;;;;;20.45;43.61;101407.81;5015504;28;96706;-27
2023/06/13 03:01:57;;;;;;;3.85;2.38;;;;;;;20.47;43.37;101408.53;5016607;28;96842;-27
2023/06/13 03:04:23;;;;;;;3.47;2.15;;;;;;;20.41;43.68;101407.25;5015956;28;97325;-26
2023/06/13 03:06:49;;;;;;;3.28;1.98;;;;;;;20.37;44.00;101411.31;5014812;28;100830;-26
2023/06/13 03:09:15;;;;;;;5.38;2.10;;;;;;;20.33;43.84;101412.59;5015133;28;96778;-27
2023/06/13 03:11:41;;;;;;;3.20;1.92;;;;;;;20.35;44.40;101421.56;5016632;28;98093;-27
2023/06/13 03:14:06;;;;;;;4.60;2.10;;;;;;;20.27;44.09;101411.31;5016420;28;97357;-27
2023/06/13 03:16:32;;;;;;;3.80;2.22;;;;;;;20.24;43.80;101413.47;5016214;28;97853;-27
2023/06/13 03:18:57;;;;;;;3.17;2.13;;;;;;;20.18;44.83;101414.91;5016294;28;96642;-27
2023/06/13 03:21:23;;;;;;;4.03;2.05;;;;;;;20.17;44.34;101410.44;5016684;28;97722;-26
2023/06/13 03:23:48;;;;;;;4.97;2.35;;;;;;;20.14;44.67;101421.69;5016171;28;98063;-27
2023/06/13 03:26:16;;;;;;;3.92;2.00;;;;;;;20.14;44.76;101419.84;5015652;28;99129;-27
2023/06/13 03:28:42;;;;;;;6.45;2.70;;;;;;;20.14;44.77;101413.44;5015789;28;96476;-28
2023/06/13 03:31:07;;;;;;;4.38;2.35;;;;;;;20.07;44.68;101407.66;5016500;28;96591;-27
2023/06/13 03:33:32;;;;;;;4.40;2.22;;;;;;;20.08;44.75;101420.41;5015643;28;97499;-26
2023/06/13 03:35:58;;;;;;;2.88;1.85;;;;;;;20.06;44.83;101416.06;5016209;28;97274;-27
2023/06/13 03:38:23;;;;;;;5.93;2.08;;;;;;;20.02;44.79;101415.47;5016161;28;96813;-28
2023/06/13 03:40:48;;;;;;;3.83;1.83;;;;;;;20.06;44.79;101416.91;5015707;28;99337;-27
2023/06/13 03:43:13;;;;;;;7.55;2.20;;;;;;;20.01;45.06;101410.13;5015700;28;109050;-26
2023/06/13 03:45:39;;;;;;;5.15;2.50;;;;;;;19.98;45.35;101419.53;5016294;28;97817;-26
2023/06/13 03:48:04;;;;;;;3.80;2.25;;;;;;;19.98;44.86;101413.16;5016217;28;96514;-26
2023/06/13 03:50:30;;;;;;;4.53;2.13;;;;;;;19.97;45.14;101416.91;5015980;28;96732;-27
2023/06/13 03:52:55;;;;;;;4.43;2.33;;;;;;;19.98;45.00;101429.66;5015231;28;97535;-27
2023/06/13 03:55:23;;;;;;;7.43;2.30;;;;;;;19.89;45.25;101415.72;5015048;28;98829;-27
2023/06/13 03:57:49;;;;;;;5.03;1.92;;;;;;;19.90;45.09;101411.09;5014451;28;96674;-27
2023/06/13 04:00:15;;;;;;;4.53;2.20;;;;;;;19.85;44.91;101413.41;5016080;28;96537;-28
2023/06/13 04:02:41;;;;;;;3.67;2.00;;;;;;;19.77;45.28;101419.59;5015592;28;97436;-28
2023/06/13 04:05:08;;;;;;;4.88;2.25;;;;;;;19.70;45.60;101419.28;5013999;28;101198;-27
2023/06/13 04:07:35;;;;;;;3.47;2.13;;;;;;;19.72;45.27;101417.28;5014381;28;96705;-26
2023/06/13 04:10:01;;;;;;;2.88;2.00;;;;;;;19.74;45.74;101422.66;5014733;28;96882;-26
2023/06/13 04:12:28;;;;;;;3.28;2.15;;;;;;;19.65;45.22;101420.69;5013883;28;100902;-28
2023/06/13 04:14:53;;;;;;;3.70;2.33;;;;;;;19.65;45.34;101427.06;5013844;28;100126;-26
2023/06/13 04:17:18;;;;;;;4.82;2.67;;;;;;;19.68;45.27;101429.56;5015285;28;96609;-31
2023/06/13 04:19:44;;;;;;;3.55;2.10;;;;;;;19.67;45.49;101426.94;5015264;28;97081;-28
2023/06/13 04:22:10;;;;;;;3.60;2.08;;;;;;;19.68;45.18;101432.31;5015124;28;99371;-27
2023/06/13 04:24:36;;;;;;;4.13;2.42;;;;;;;19.63;45.22;101431.81;5015000;28;97280;-27
2023/06/13 04:27:03;;;;;;;3.97;2.08;;;;;;;19.64;45.41;101430.84;5014180;28;96630;-27
2023/06/13 04:29:29;;;;;;;4.03;2.28;;;;;;;19.56;45.30;101419.66;5015320;28;96873;-27
2023/06/13 04:31:55;;;;;;;3.75;2.30;;;;;;;19.61;45.25;101432.97;5013612;28;101364;-27
2023/06/13 04:34:23;;;;;;;4.75;2.42;;;;;;;19.57;45.42;101437.91;5014453;28;99317;-26
2023/06/13 04:36:49;;;;;;;5.35;2.05;;;;;;;19.49;45.51;101429.47;5015295;28;96698;-27
2023/06/13 04:39:15;;;;;;;4.50;1.90;;;;;;;19.45;45.35;101422.47;5015184;28;96602;-26
2023/06/13 04:41:43;;;;;;;4.18;2.17;;;;;;;19.46;45.92;101432.50;5014533;28;97948;-27
2023/06/13 04:44:09;;;;;;;4.60;2.35;;;;;;;19.44;45.26;101431.75;5014605;28;99295;-26
2023/06/13 04:46:36;;;;;;;3.60;1.95;;;;;;;19.51;45.09;101439.28;5013616;28;96626;-26
2023/06/13 04:49:04;;;;;;;4.95;2.38;;;;;;;19.44;45.34;101426.25;5013760;28;96598;-28
2023/06/13 04:51:30;;;;;;;3.53;2.22;;;;;;;19.49;44.94;101444.06;5014544;28;99495;-27
2023/06/13 04:54:00;;;;;;;4.53;2.28;;;;;;;19.49;45.14;101446.81;5013360;28;100667;-28
2023/06/13 04:56:28;;;;;;;3.30;1.92;;;;;;;19.55;45.67;101452.78;5013664;28;96582;-27
2023/06/13 04:58:55;;;;;;;7.40;2.22;;;;;;;19.51;45.27;101447.53;5015116;28;97129;-27
2023/06/13 05:01:21;;;;;;;3.35;2.10;;;;;;;19.56;45.09;101457.25;5012872;28;100884;-27
2023/06/13 05:03:51;;;;;;;3.22;2.13;;;;;;;19.51;45.29;101446.69;5013196;28;100771;-26
2023/06/13 05:06:17;;;;;;;3.92;2.17;;;;;;;19.51;44.89;101455.78;5013037;28;96802;-26
2023/06/13 05:08:42;;;;;;;3.85;2.25;;;;;;;19.45;45.33;101445.38;5013573;28;96839;-27
2023/06/13 05:11:07;;;;;;;5.22;2.40;;;;;;;19.44;45.05;101448.25;5014191;28;110682;-26
2023/06/13 05:13:33;;;;;;;5.53;2.05;;;;;;;19.49;45.39;101462.44;5014651;28;97592;-26
2023/06/13 05:15:59;;;;;;;4.22;2.10;;;;;;;19.55;45.31;101464.63;5014686;28;96641;-26
2023/06/13 05:18:29;;;;;;;3.92;2.40;;;;;;;19.59;45.41;101463.34;5014995;28;96837;-26
2023/06/13 05:20:58;;;;;;;4.50;1.90;;;;;;;19.64;45.15;101462.91;5014288;28;99372;-27
2023/06/13 05:23:24;;;;;;;3.88;2.38;;;;;;;19.71;44.92;101475.13;5013175;28;100736;-27
2023/06/13 05:25:50;;;;;;;7.15;2.30;;;;;;;19.70;45.14;101459.66;5014644;28;96688;-27
2023/06/13 05:28:19;;;;;;;6.63;2.53;;;;;;;19.76;45.27;101464.63;5012830;28;96719;-26
2023/06/13 05:30:45;;;;;;;4.03;2.15;;;;;;;19.80;44.98;101465.19;5012245;28;100784;-27
2023/06/13 05:33:11;;;;;;;3.28;2.05;;;;;;;19.87;44.36;101475.50;5013734;28;97151;-27
2023/06/13 05:35:36;;;;;;;6.93;2.22;;;;;;;19.90;44.53;101480.72;5014678;28;96576;-27
2023/06/13 05:38:01;;;;;;;8.40;2.90;;;;;;;;;;5014394;28;96489;-27
2023/06/13 05:40:27;;;;;;;6.57;2.13;;;;;;;19.85;44.75;101472.00;5014255;28;97764;-27
2023/06/13 05:42:52;;;;;;;9.75;2.35;;;;;;;19.93;44.82;101468.59;5013600;28;99790;-27
2023/06/13 05:45:18;;;;;;;3.47;2.28;;;;;;;20.11;44.66;101479.75;5014440;28;96500;-27
2023/06/13 05:47:43;;;;;;;6.18;2.47;;;;;;;20.08;44.48;101480.91;5014493;28;96902;-26
2023/06/13 05:50:09;;;;;;;3.63;2.25;;;;;;;20.23;44.55;101477.75;5012719;28;101147;-28
2023/06/13 05:52:34;;;;;;;5.20;2.17;;;;;;;20.29;44.43;101488.22;5013722;28;99042;-27
2023/06/13 05:55:00;;;;;;;9.65;2.42;;;;;;;20.28;44.15;101481.81;5012489;28;96668;-26
2023/06/13 05:57:36;;;;;;;7.75;2.83;;;;;;;20.41;44.18;101488.94;5012878;28;97040;-27
2023/06/13 06:00:02;;;;;;;6.35;3.03;;;;;;;20.49;43.94;101478.09;5012613;28;100970;-26
2023/06/13 06:02:28;;;;;;;6.63;2.60;;;;;;;20.60;43.54;101483.50;5013873;28;99401;-26
2023/06/13 06:04:55;;;;;;;6.25;2.53;;;;;;;20.71;43.67;101487.97;5014127;28;96819;-26
2023/06/13 06:07:20;;;;;;;4.15;2.58;;;;;;;20.79;43.72;101491.75;5012683;28;96859;-26
2023/06/13 06:09:45;;;;;;;5.45;2.20;;;;;;;20.82;43.65;101485.06;5013867;28;97871;-27
2023/06/13 06:12:11;;;;;;;3.97;2.33;;;;;;;20.95;43.88;101496.69;5013891;28;100655;-27
2023/06/13 06:14:36;;;;;;;4.25;2.38;;;;;;;20.98;43.63;101492.75;5014200;28;96806;-27
2023/06/13 06:17:02;;;;;;;4.43;2.20;;;;;;;21.11;43.77;101487.78;5014104;28;96710;-26
2023/06/13 06:19:27;;;;;;;4.28;2.75;;;;;;;21.10;43.26;101486.06;5014687;28;98088;-27
2023/06/13 06:21:52;;;;;;;4.30;2.67;;;;;;;21.23;43.26;101493.16;5017286;28;97784;-26
2023/06/13 06:24:18;;;;;;;5.15;2.50;;;;;;;21.27;43.12;101500.09;5017131;28;98951;-27
2023/06/13 06:26:43;;;;;;;5.07;2.53;;;;;;;21.37;43.39;101492.66;5016533;28;97885;-27
2023/06/13 06:29:08;;;;;;;4.75;2.45;;;;;;;21.41;43.22;101489.50;5016864;28;105544;-26
2023/06/13 06:31:34;;;;;;;4.90;2.92;;;;;;;21.52;43.36;101504.97;5016724;28;110778;-27
2023/06/13 06:33:59;;;;;;;4.50;2.60;;;;;;;21.66;43.22;101489.84;5016265;28;98222;-27
2023/06/13 06:36:24;;;;;;;6.95;2.40;;;;;;;21.76;43.11;101495.31;5017787;28;96881;-28
2023/06/13 06:38:50;;;;;;;3.40;2.13;;;;;;;21.82;42.78;101489.22;5016774;28;99478;-26
2023/06/13 06:41:16;;;;;;;7.38;2.75;;;;;;;22.03;42.62;101491.72;5016714;28;99082;-27
2023/06/13 06:43:41;;;;;;;9.13;2.63;;;;;;;22.17;42.93;101487.59;5015127;28;96696;-27
2023/06/13 06:46:08;;;;;;;4.78;2.22;;;;;;;22.33;41.93;101492.44;5017319;28;96780;-27
2023/06/13 06:48:33;;;;;;;6.07;2.40;;;;;;;22.42;41.99;101497.88;5015282;28;101290;-27
2023/06/13 06:50:59;;;;;;;4.38;1.92;;;;;;;22.53;41.84;101494.03;5016829;28;97843;-27
2023/06/13 06:53:24;;;;;;;5.95;2.20;;;;;;;22.68;41.81;101480.53;5016796;28;96753;-27
2023/06/13 06:55:50;;;;;;;7.25;2.70;;;;;;;22.93;41.80;101481.66;5016823;28;96759;-27
2023/06/13 06:58:15;;;;;;;3.70;2.13;;;;;;;22.93;40.95;101486.28;5016700;28;97877;-27
2023/06/13 07:00:41;;;;;;;5.75;2.40;;;;;;;23.05;41.62;101491.44;5016910;28;97929;-26
2023/06/13 07:03:07;;;;;;;4.40;2.50;;;;;;;23.21;41.35;101487.91;5016583;28;96501;-26
2023/06/13 07:05:33;;;;;;;5.65;2.47;;;;;;;23.37;41.10;101478.03;5015363;28;96606;-26
2023/06/13 07:07:58;;;;;;;2.72;1.95;;;;;;;23.53;40.98;101491.97;5016168;28;97997;-26
2023/06/13 07:10:25;;;;;;;3.42;2.03;;;;;;;23.45;39.48;101483.59;5015769;28;104593;-27
2023/06/13 07:12:50;;;;;;;4.10;2.30;;;;;;;23.53;39.85;101492.81;5016559;28;96513;-26
2023/06/13 07:15:15;;;;;;;3.90;2.17;;;;;;;23.56;39.52;101474.16;5016087;28;99292;-27
2023/06/13 07:17:41;;;;;;;3.88;1.92;;;;;;;23.75;39.93;101490.53;5014870;28;99295;-26
2023/06/13 07:20:08;;;;;;;3.30;2.13;;;;;;;23.88;39.40;101501.16;5015742;28;109989;-27
2023/06/13 07:22:33;;;;;;;5.07;1.75;;;;;;;23.93;38.97;101491.34;5015196;28;96771;-26
2023/06/13 07:24:59;;;;;;;3.35;2.10;;;;;;;23.99;38.78;101492.56;5016461;28;96788;-26
2023/06/13 07:27:24;;;;;;;2.83;1.73;;;;;;;24.11;38.70;101496.75;5016205;28;97915;-27
2023/06/13 07:29:49;;;;;;;3.58;1.90;;;;;;;24.09;38.66;101496.03;5015844;28;97792;-27
2023/06/13 07:32:15;;;;;;;4.30;2.03;;;;;;;24.31;38.56;101504.78;5015114;28;96631;-26
2023/06/13 07:34:40;;;;;;;3.47;1.88;;;;;;;24.53;38.46;101495.88;5015423;28;96902;-27
2023/06/13 07:37:05;;;;;;;4.35;2.22;;;;;;;24.57;38.09;101497.28;5016056;28;97933;-27
2023/06/13 07:39:31;;;;;;;5.35;2.00;;;;;;;24.65;37.89;101503.88;5015178;28;115180;-27
2023/06/13 07:41:56;;;;;;;2.83;1.90;;;;;;;24.82;37.26;101490.91;5016280;28;96510;-26
2023/06/13 07:44:21;;;;;;;5.50;2.28;;;;;;;24.87;37.20;101488.47;5016220;28;96850;-27
2023/06/13 07:46:47;;;;;;;2.83;1.90;;;;;;;25.05;36.95;101504.91;5015744;28;98014;-26
2023/06/13 07:49:13;;;;;;;3.85;2.00;;;;;;;25.06;36.45;101490.03;5015873;28;98902;-28
2023/06/13 07:51:39;;;;;;;4.32;2.10;;;;;;;25.20;36.69;101494.91;5016108;28;96577;-27
2023/06/13 07:54:04;;;;;;;3.42;1.58;;;;;;;25.35;36.79;101489.50;5015714;28;96894;-26
2023/06/13 07:56:29;;;;;;;3.88;2.38;;;;;;;25.47;36.26;101487.22;5013696;28;99956;-26
2023/06/13 07:58:55;;;;;;;3.08;2.10;;;;;;;25.62;36.15;101483.56;5015474;28;99620;-26
2023/06/13 08:01:21;;;;;;;3.55;1.77;;;;;;;25.66;36.12;101484.06;5015813;28;96461;-27
2023/06/13 08:03:46;;;;;;;3.72;1.95;;;;;;;25.83;36.34;101491.25;5014247;28;96865;-26
2023/06/13 08:06:12;;;;;;;3.10;1.80;;;;;;;25.89;35.91;101492.50;5015590;28;97983;-26
2023/06/13 08:08:37;;;;;;;4.25;2.22;;;;;;;25.92;35.79;101480.19;5015431;28;97912;-26
2023/06/13 08:11:03;;;;;;;3.47;1.90;;;;;;;26.12;35.52;101486.16;5000602;28;96700;-26
2023/06/13 08:13:28;;;;;;;3.05;1.98;;;;;;;26.29;35.35;101501.72;5010234;28;97187;-27
2023/06/13 08:15:54;;;;;;;4.75;2.05;;;;;;;26.19;34.56;101487.16;5013401;28;99461;-27
2023/06/13 08:18:19;;;;;;;3.20;1.70;;;;;;;26.12;34.67;101475.91;5012390;28;99180;-26
2023/06/13 08:20:45;;;;;;;4.32;2.28;;;;;;;26.30;34.61;101485.91;5015044;28;96515;-27
2023/06/13 08:23:12;;;;;;;4.25;2.10;;;;;;;26.32;33.74;101481.88;5014746;28;96840;-27
2023/06/13 08:25:37;;;;;;;6.45;2.25;;;;;;;26.26;33.27;101477.91;5014853;28;98030;-27
2023/06/13 08:28:06;;;;;;;2.65;1.80;;;;;;;26.35;33.11;101484.28;5014539;28;97338;-27
2023/06/13 08:30:31;;;;;;;3.22;1.90;;;;;;;26.41;33.35;101488.25;5012145;28;97096;-34
2023/06/13 08:33:01;;;;;;;3.97;2.33;;;;;;;26.52;33.07;101490.59;5002133;28;96783;-27
2023/06/13 08:35:27;;;;;;;3.53;2.13;;;;;;;26.48;31.87;101475.34;4992729;28;101439;-26
2023/06/13 08:37:52;;;;;;;3.17;1.90;;;;;;;26.57;32.81;101493.72;4995957;28;97279;-27
2023/06/13 08:40:19;;;;;;;3.30;2.17;;;;;;;26.64;32.10;101485.53;4994952;28;96534;-26
2023/06/13 08:42:45;;;;;;;3.55;2.30;;;;;;;26.74;32.03;101477.78;4993586;28;96854;-26
2023/06/13 08:45:11;;;;;;;2.90;1.70;;;;;;;26.75;31.66;101474.00;4990650;28;101013;-27
2023/06/13 08:47:38;;;;;;;4.18;2.08;;;;;;;26.97;31.35;101485.28;4990857;28;101238;-27
2023/06/13 08:50:04;;;;;;;4.25;2.47;;;;;;;27.04;31.94;101462.09;4992636;28;96975;-30
2023/06/13 08:52:39;;;;;;;3.60;2.05;;;;;;;27.11;30.32;101473.31;4993457;28;97010;-28
2023/06/13 08:55:08;;;;;;;4.55;2.28;;;;;;;26.98;30.85;101454.50;4993779;28;99463;-27
2023/06/13 08:57:37;;;;;;;3.97;1.95;;;;;;;27.24;31.24;101458.78;4991201;28;99556;-27
2023/06/13 09:00:06;;;;;;;3.10;2.33;;;;;;;27.35;31.02;101454.69;4992891;28;97045;-28
2023/06/13 09:02:32;;;;;;;3.17;1.95;;;;;;;27.45;30.81;101452.50;4991691;28;96932;-26
2023/06/13 09:04:58;;;;;;;3.42;2.13;;;;;;;27.47;30.28;101445.69;4990608;28;101372;-32
2023/06/13 09:07:25;;;;;;;4.35;2.03;;;;;;;27.68;29.09;101466.34;4997356;28;97749;-28
2023/06/13 09:09:51;;;;;;;5.22;2.58;;;;;;;27.58;29.47;101443.47;4991608;28;96677;-27
2023/06/13 09:12:17;;;;;;;4.03;2.40;;;;;;;27.72;29.62;101453.72;4994403;28;96698;-30
2023/06/13 09:14:43;;;;;;;3.33;2.30;;;;;;;27.66;29.31;101457.31;4994478;28;97368;-27
2023/06/13 09:17:09;;;;;;;7.55;2.65;;;;;;;27.69;29.84;101452.19;5003506;28;98656;-27
2023/06/13 09:19:35;;;;;;;3.70;2.00;;;;;;;27.78;29.20;101452.97;5013548;28;97045;-26
2023/06/13 09:22:00;;;;;;;3.58;2.10;;;;;;;27.84;29.10;101438.31;5013245;28;96872;-28
2023/06/13 09:24:27;;;;;;;3.13;1.83;;;;;;;28.08;28.51;101442.69;5011959;28;99430;-31
2023/06/13 09:26:52;;;;;;;2.53;1.80;;;;;;;28.00;28.48;101445.56;5010692;28;100818;-27
2023/06/13 09:29:18;;;;;;;9.35;2.38;;;;;;;28.14;28.63;101449.41;5012491;28;96716;-27
2023/06/13 09:31:43;;;;;;;4.28;2.40;;;;;;;28.18;28.64;101445.16;4995268;28;96853;-31
2023/06/13 09:34:15;;;;;;;5.38;2.10;;;;;;;28.32;28.44;101444.25;4994214;28;97401;-29
2023/06/13 09:36:41;;;;;;;5.40;2.15;;;;;;;28.32;28.51;101443.41;5000043;28;101018;-31
2023/06/13 09:39:06;;;;;;;2.78;1.88;;;;;;;28.37;28.70;101452.88;4993362;28;96700;-27
2023/06/13 09:41:35;;;;;;;3.92;2.30;;;;;;;28.37;27.55;101436.16;4994048;28;96774;-26
2023/06/13 09:44:04;;;;;;;5.25;2.35;;;;;;;28.54;28.47;101427.59;4993913;28;99657;-26
2023/06/13 09:46:36;;;;;;;4.22;2.45;;;;;;;28.67;27.94;101438.84;4992594;28;101212;-27
2023/06/13 09:49:02;;;;;;;6.07;2.50;;;;;;;28.81;28.09;101428.69;4993066;28;96673;-27
2023/06/13 09:51:32;;;;;;;2.92;1.77;;;;;;;28.96;27.38;101431.38;4993331;28;96954;-27
2023/06/13 09:53:59;;;;;;;8.90;2.55;;;;;;;28.83;27.63;101431.28;4993335;28;101523;-27
2023/06/13 09:56:25;;;;;;;2.90;1.90;;;;;;;28.86;27.77;101442.03;4996115;28;101165;-28
2023/06/13 09:58:51;;;;;;;6.35;2.20;;;;;;;28.62;27.02;101427.44;4997420;28;97102;-26
2023/06/13 10:01:17;;;;;;;9.43;2.30;;;;;;;28.56;27.87;101431.03;4996285;28;96859;-27
2023/06/13 10:03:43;;;;;;;3.42;1.92;;;;;;;28.50;27.78;101432.69;4995802;28;101029;-26
2023/06/13 10:06:09;;;;;;;4.57;2.00;;;;;;;28.49;27.36;101439.31;4995973;28;100929;-28
2023/06/13 10:08:34;;;;;;;3.28;2.10;;;;;;;28.57;27.79;101427.19;4997702;28;96593;-26
2023/06/13 10:11:07;;;;;;;3.67;2.30;;;;;;;28.64;27.93;101424.47;4997912;28;97198;-26
2023/06/13 10:13:39;;;;;;;3.10;2.20;;;;;;;28.70;27.84;101432.91;4995993;28;101356;-26
2023/06/13 10:16:06;;;;;;;3.13;1.80;;;;;;;28.79;26.95;101439.19;4996308;28;101372;-26
2023/06/13 10:18:39;;;;;;;7.07;2.40;;;;;;;28.88;26.90;101424.03;4996174;28;96528;-27
2023/06/13 10:21:06;;;;;;;3.33;2.38;;;;;;;28.85;26.66;101423.59;4996057;28;97000;-27
2023/06/13 10:23:35;;;;;;;7.10;2.20;;;;;;;28.97;26.59;101425.63;4995085;28;100810;-26
2023/06/13 10:26:08;;;;;;;4.68;1.92;;;;;;;29.10;26.96;101432.41;4995379;28;100896;-26
2023/06/13 10:28:51;;;;;;;5.10;2.40;;;;;;;29.18;26.55;101424.75;4997370;28;96596;-26
2023/06/13 10:31:38;;;;;;;6.82;2.30;;;;;;;29.17;27.08;101417.41;4996021;28;96817;-28
2023/06/13 10:34:19;;;;;;;3.88;2.45;;;;;;;29.09;26.08;101425.97;4996516;28;97599;-26
2023/06/13 10:37:27;;;;;;;7.03;2.03;;;;;;;29.10;26.79;101421.22;4996941;28;97872;-27
2023/06/13 10:40:24;;;;;;;2.97;2.03;;;;;;;29.01;26.08;101417.72;4992626;28;96832;-27
2023/06/13 10:42:59;;;;;;;4.10;2.30;;;;;;;28.90;25.87;101416.31;4997483;28;96626;-26
2023/06/13 10:45:29;;;;;;;9.13;2.50;;;;;;;28.95;25.85;101412.94;4995395;28;101081;-27
2023/06/13 10:47:58;;;;;;;5.85;2.38;;;;;;;29.13;25.80;101406.91;4995380;28;100873;-27
2023/06/13 10:50:24;;;;;;;5.05;1.92;;;;;;;29.17;26.54;101405.41;4995076;28;96690;-26
2023/06/13 10:52:54;;;;;;;3.80;2.25;;;;;;;29.18;26.63;101405.22;4995604;28;96854;-27
2023/06/13 10:55:27;;;;;;;2.75;1.90;;;;;;;29.27;25.79;101402.25;4996287;28;99896;-27
2023/06/13 10:57:56;;;;;;;2.78;1.95;;;;;;;29.34;25.68;101397.56;4995140;28;101343;-28
2023/06/13 11:00:35;;;;;;;3.28;1.98;;;;;;;29.56;25.39;101406.75;4995481;28;96587;-26
2023/06/13 11:03:05;;;;;;;5.25;2.17;;;;;;;29.61;25.47;101410.63;4995285;28;96864;-27
2023/06/13 11:05:47;;;;;;;4.57;2.20;;;;;;;29.70;25.28;101407.69;4994797;28;101248;-27
2023/06/13 11:08:21;;;;;;;4.43;2.00;;;;;;;29.85;25.78;101397.25;4995381;28;101519;-27
2023/06/13 11:10:48;;;;;;;4.38;2.10;;;;;;;29.98;25.89;101407.59;4995310;28;96693;-26
2023/06/13 11:13:31;;;;;;;3.45;2.15;;;;;;;29.83;25.54;101394.66;4995198;28;96929;-26
2023/06/13 11:16:15;;;;;;;9.73;2.22;;;;;;;29.70;25.75;101396.50;4994572;28;101220;-26
2023/06/13 11:18:52;;;;;;;3.83;2.22;;;;;;;29.77;26.00;101403.00;4996154;28;99353;-26
2023/06/13 11:21:18;;;;;;;5.72;1.90;;;;;;;29.80;25.61;101394.22;4995174;28;96657;-26
2023/06/13 11:23:48;;;;;;;7.47;2.40;;;;;;;29.76;25.20;101402.13;4995037;28;96858;-27
2023/06/13 11:26:19;;;;;;;5.90;2.40;;;;;;;29.81;25.36;101393.13;4994785;28;100904;-26